createdAt,value
2023-06-15T00:01:08.521Z,40.90
2023-06-15T00:04:10.076Z,40.78
2023-06-15T00:07:11.824Z,40.61
2023-06-15T00:10:13.737Z,40.89
2023-06-15T00:13:16.703Z,40.84
2023-06-15T00:16:19.675Z,40.91
2023-06-15T00:19:21.277Z,41.01
2023-06-15T00:22:22.704Z,40.98
2023-06-15T00:25:24.114Z,41.12
2023-06-15T00:28:26.951Z,41.32
2023-06-15T00:31:28.712Z,41.23
2023-06-15T00:34:30.880Z,41.36
2023-06-15T00:37:32.355Z,41.18
2023-06-15T00:40:33.836Z,41.48
2023-06-15T00:43:36.723Z,41.54
2023-06-15T00:46:39.423Z,41.42
2023-06-15T00:49:41.406Z,41.42
2023-06-15T00:52:44.790Z,41.55
2023-06-15T00:55:48.615Z,41.45
2023-06-15T00:58:50.502Z,41.72
2023-06-15T01:01:56.063Z,41.67
2023-06-15T01:04:57.719Z,41.74
2023-06-15T01:08:03.079Z,41.91
2023-06-15T01:11:05.129Z,41.84
2023-06-15T01:14:08.146Z,41.96
2023-06-15T01:17:14.505Z,42.38
2023-06-15T01:20:28.247Z,42.38
2023-06-15T01:23:41.778Z,42.59
2023-06-15T01:26:46.510Z,42.59
2023-06-15T01:29:53.289Z,42.71
2023-06-15T01:32:55.792Z,42.54
2023-06-15T01:35:57.455Z,42.69
2023-06-15T01:39:04.106Z,42.84
2023-06-15T01:42:06.969Z,42.99
2023-06-15T01:45:09.976Z,43.27
2023-06-15T01:48:12.527Z,43.21
2023-06-15T01:51:16.356Z,43.41
2023-06-15T01:54:18.009Z,43.66
2023-06-15T01:57:21.348Z,43.46
2023-06-15T02:00:24.893Z,43.80
2023-06-15T02:03:26.355Z,43.98
2023-06-15T02:06:27.815Z,43.88
2023-06-15T02:09:30.141Z,43.82
2023-06-15T02:12:31.751Z,43.86
2023-06-15T02:15:35.144Z,44.09
2023-06-15T02:18:38.284Z,44.11
2023-06-15T02:21:39.723Z,44.34
2023-06-15T02:24:41.186Z,44.41
2023-06-15T02:27:42.613Z,44.23
2023-06-15T02:30:44.195Z,44.25
2023-06-15T02:33:45.832Z,44.54
2023-06-15T02:36:49.511Z,44.99
2023-06-15T02:39:51.103Z,44.42
2023-06-15T02:42:52.599Z,44.65
2023-06-15T02:45:55.440Z,44.69
2023-06-15T02:48:58.065Z,44.83
2023-06-15T02:51:59.844Z,44.48
2023-06-15T02:55:02.055Z,44.69
2023-06-15T02:58:03.922Z,45.39
2023-06-15T03:01:24.638Z,45.32
2023-06-15T03:04:33.990Z,45.63
2023-06-15T03:07:37.015Z,45.38
2023-06-15T03:10:53.982Z,44.31
2023-06-15T03:13:55.980Z,44.57
2023-06-15T03:16:58.519Z,45.31
2023-06-15T03:20:01.412Z,45.40
2023-06-15T03:23:03.694Z,46.62
2023-06-15T03:26:07.504Z,47.46
2023-06-15T03:29:09.122Z,48.02
2023-06-15T03:32:12.987Z,48.65
2023-06-15T03:35:15.476Z,48.20
2023-06-15T03:38:18.104Z,48.12
2023-06-15T03:41:20.392Z,47.68
2023-06-15T03:44:22.799Z,47.28
2023-06-15T03:47:25.681Z,46.83
2023-06-15T03:50:27.325Z,46.77
2023-06-15T03:53:28.949Z,49.42
2023-06-15T03:56:30.437Z,51.81
2023-06-15T03:59:31.980Z,53.56
2023-06-15T04:02:34.093Z,54.83
2023-06-15T04:05:35.865Z,55.00
2023-06-15T04:08:37.330Z,54.11
2023-06-15T04:11:38.896Z,53.60
2023-06-15T04:14:42.784Z,55.09
2023-06-15T04:17:45.288Z,53.90
2023-06-15T04:20:47.508Z,55.10
2023-06-15T04:23:49.024Z,54.83
2023-06-15T04:26:51.340Z,55.23
2023-06-15T04:29:54.043Z,55.01
2023-06-15T04:33:00.881Z,55.38
2023-06-15T04:36:05.809Z,54.43
2023-06-15T04:39:07.525Z,55.24
2023-06-15T04:42:10.150Z,54.19
2023-06-15T04:45:12.324Z,54.56
2023-06-15T04:48:14.231Z,55.50
2023-06-15T04:51:17.321Z,55.44
2023-06-15T04:54:18.827Z,54.95
2023-06-15T04:57:21.353Z,55.22
2023-06-15T05:00:23.333Z,53.88
2023-06-15T05:03:30.708Z,54.44
2023-06-15T05:06:32.551Z,54.38
2023-06-15T05:09:34.101Z,54.72
2023-06-15T05:12:39.236Z,54.36
2023-06-15T05:15:40.905Z,54.32
2023-06-15T05:18:44.120Z,54.04
2023-06-15T05:21:45.549Z,54.36
2023-06-15T05:24:47.210Z,53.77
2023-06-15T05:27:49.309Z,52.94
2023-06-15T05:30:51.335Z,52.51
2023-06-15T05:33:54.080Z,51.80
2023-06-15T05:36:57.852Z,51.38
2023-06-15T05:40:06.713Z,51.43
2023-06-15T05:43:08.208Z,50.07
2023-06-15T05:46:10.242Z,49.13
2023-06-15T05:49:12.010Z,49.80
2023-06-15T05:52:15.831Z,49.23
2023-06-15T05:55:18.442Z,49.97
2023-06-15T05:58:20.306Z,48.18
2023-06-15T06:01:21.788Z,48.66
2023-06-15T06:04:24.433Z,48.36
2023-06-15T06:07:26.107Z,47.76
2023-06-15T06:10:27.630Z,48.66
2023-06-15T06:13:43.046Z,48.79
2023-06-15T06:16:44.857Z,48.42
2023-06-15T06:19:46.753Z,47.65
2023-06-15T06:22:48.199Z,47.48
2023-06-15T06:25:49.668Z,48.47
2023-06-15T06:28:51.231Z,48.51
2023-06-15T06:31:52.681Z,48.10
2023-06-15T06:34:54.168Z,47.88
2023-06-15T06:37:55.983Z,47.73
2023-06-15T06:40:57.777Z,48.16
2023-06-15T06:43:59.253Z,47.08
2023-06-15T06:47:02.216Z,47.01
2023-06-15T06:50:06.263Z,46.25
2023-06-15T06:53:07.712Z,46.01
2023-06-15T06:56:09.117Z,46.46
2023-06-15T06:59:10.598Z,45.93
2023-06-15T07:02:13.584Z,46.25
2023-06-15T07:05:15.266Z,46.14
2023-06-15T07:08:16.793Z,46.26
2023-06-15T07:11:18.339Z,46.25
2023-06-15T07:14:20.761Z,46.63
2023-06-15T07:17:22.219Z,45.55
2023-06-15T07:20:23.728Z,45.32
2023-06-15T07:23:26.506Z,45.03
2023-06-15T07:26:28.135Z,45.60
2023-06-15T07:29:29.569Z,45.73
2023-06-15T07:32:31.090Z,44.04
2023-06-15T07:35:32.521Z,45.00
2023-06-15T07:38:33.967Z,44.17
2023-06-15T07:41:35.461Z,44.01
2023-06-15T07:44:36.924Z,43.91
2023-06-15T07:47:38.846Z,44.00
2023-06-15T07:50:40.451Z,43.67
2023-06-15T07:53:41.935Z,43.97
2023-06-15T07:56:45.418Z,44.00
2023-06-15T07:59:47.016Z,44.57
2023-06-15T08:02:49.343Z,44.50
2023-06-15T08:05:50.892Z,43.74
2023-06-15T08:08:52.751Z,43.42
2023-06-15T08:11:54.215Z,42.52
2023-06-15T08:14:55.778Z,42.47
2023-06-15T08:17:57.382Z,42.25
2023-06-15T08:24:00.280Z,40.42
2023-06-15T08:27:01.943Z,40.74
2023-06-15T08:30:03.840Z,40.71
2023-06-15T08:33:05.777Z,40.21
2023-06-15T08:36:07.347Z,39.39
2023-06-15T08:39:09.060Z,40.25
2023-06-15T08:42:10.520Z,40.25
2023-06-15T08:45:12.616Z,39.96
2023-06-15T08:48:17.599Z,39.96
2023-06-15T08:51:21.003Z,38.07
2023-06-15T08:54:23.800Z,37.94
2023-06-15T08:57:25.899Z,38.42
2023-06-15T09:00:27.405Z,38.09
2023-06-15T09:03:30.101Z,38.76
2023-06-15T09:06:31.664Z,38.28
2023-06-15T09:09:33.215Z,38.65
2023-06-15T09:12:34.646Z,37.02
2023-06-15T09:15:37.431Z,36.53
2023-06-15T09:18:52.081Z,35.40
2023-06-15T09:21:54.900Z,35.79
2023-06-15T09:24:56.413Z,35.71
2023-06-15T09:28:03.245Z,34.79
2023-06-15T09:31:05.844Z,34.93
2023-06-15T09:34:12.495Z,34.20
2023-06-15T09:37:17.264Z,34.23
2023-06-15T09:40:19.193Z,34.50
2023-06-15T09:43:21.822Z,34.00
2023-06-15T09:46:28.609Z,33.46
2023-06-15T09:49:30.509Z,33.98
2023-06-15T09:52:37.302Z,34.14
2023-06-15T09:55:44.667Z,33.88
2023-06-15T09:58:46.119Z,34.13
2023-06-15T10:01:49.608Z,34.09
2023-06-15T10:04:51.376Z,33.86
2023-06-15T10:07:53.114Z,33.57
2023-06-15T10:10:59.653Z,33.36
2023-06-15T10:14:09.760Z,32.96
2023-06-15T10:17:14.986Z,32.67
2023-06-15T10:20:18.992Z,31.65
2023-06-15T10:23:40.076Z,31.45
2023-06-15T10:26:44.690Z,32.05
2023-06-15T10:29:54.974Z,32.67
2023-06-15T10:33:34.240Z,33.01
2023-06-15T10:36:51.476Z,33.03
2023-06-15T10:39:53.228Z,33.23
2023-06-15T10:42:56.912Z,32.76
2023-06-15T10:45:58.390Z,32.47
2023-06-15T10:49:07.794Z,32.83
2023-06-15T10:52:14.036Z,33.28
2023-06-15T10:55:15.953Z,31.90
2023-06-15T10:58:18.005Z,33.18
2023-06-15T11:01:25.724Z,33.51
2023-06-15T11:04:31.482Z,31.92
2023-06-15T11:07:40.959Z,32.70
2023-06-15T11:10:43.553Z,32.35
2023-06-15T11:14:06.117Z,31.82
2023-06-15T11:17:07.705Z,31.61
2023-06-15T11:20:44.180Z,31.16
2023-06-15T11:23:46.747Z,31.21
2023-06-15T11:26:51.258Z,31.68
2023-06-15T11:29:58.732Z,30.96
2023-06-15T11:33:00.460Z,31.47
2023-06-15T11:36:07.743Z,31.59
2023-06-15T11:39:23.284Z,30.69
2023-06-15T11:42:24.853Z,32.33
2023-06-15T11:45:26.409Z,32.19
2023-06-15T11:48:27.990Z,32.67
2023-06-15T11:51:29.475Z,32.24
2023-06-15T11:54:49.340Z,32.08
2023-06-15T11:57:52.798Z,32.23
2023-06-15T12:00:54.327Z,32.51
2023-06-15T12:04:03.336Z,32.15
2023-06-15T12:07:08.142Z,32.16
2023-06-15T12:10:12.561Z,31.88
2023-06-15T12:13:14.093Z,30.50
2023-06-15T12:16:15.748Z,30.76
2023-06-15T12:19:17.686Z,30.52
2023-06-15T12:22:32.823Z,29.67
2023-06-15T12:25:48.262Z,28.52
2023-06-15T12:28:53.206Z,29.67
2023-06-15T12:31:55.654Z,29.68
2023-06-15T12:34:57.089Z,30.40
2023-06-15T12:37:58.967Z,31.02
2023-06-15T12:41:00.757Z,31.06
2023-06-15T12:44:02.231Z,31.21
2023-06-15T12:47:04.141Z,31.62
2023-06-15T12:50:07.123Z,31.27
2023-06-15T12:53:08.711Z,31.28
2023-06-15T12:56:10.250Z,32.08
2023-06-15T12:59:11.672Z,32.10
2023-06-15T13:02:13.254Z,31.48
2023-06-15T13:05:15.129Z,31.12
2023-06-15T13:08:17.983Z,31.16
2023-06-15T13:11:19.549Z,31.41
2023-06-15T13:14:21.405Z,30.58
2023-06-15T13:17:22.840Z,30.91
2023-06-15T13:20:24.574Z,30.09
2023-06-15T13:23:26.661Z,29.79
2023-06-15T13:26:28.333Z,30.25
2023-06-15T13:29:30.000Z,29.53
2023-06-15T13:32:31.661Z,28.56
2023-06-15T13:35:33.210Z,28.37
2023-06-15T13:38:34.659Z,28.36
2023-06-15T13:41:36.286Z,28.59
2023-06-15T13:44:37.719Z,28.64
2023-06-15T13:47:42.125Z,28.60
2023-06-15T13:50:43.780Z,28.49
2023-06-15T13:53:45.213Z,28.69
2023-06-15T13:56:46.947Z,29.03
2023-06-15T13:59:48.362Z,29.04
2023-06-15T14:02:49.962Z,28.91
2023-06-15T14:05:51.602Z,28.61
2023-06-15T14:08:53.454Z,28.87
2023-06-15T14:11:58.766Z,29.13
2023-06-15T14:15:00.363Z,29.24
2023-06-15T14:18:01.847Z,29.21
2023-06-15T14:21:03.362Z,28.88
2023-06-15T14:24:05.239Z,29.10
2023-06-15T14:27:07.021Z,29.39
2023-06-15T14:30:08.959Z,29.52
2023-06-15T14:33:10.476Z,28.59
2023-06-15T14:36:12.011Z,27.78
2023-06-15T14:39:14.653Z,27.54
2023-06-15T14:42:20.432Z,26.62
2023-06-15T14:45:22.102Z,26.38
2023-06-15T14:48:23.663Z,25.88
2023-06-15T14:51:25.419Z,26.01
2023-06-15T14:54:26.853Z,25.38
2023-06-15T14:57:30.196Z,25.31
2023-06-15T15:00:31.653Z,25.20
2023-06-15T15:03:33.122Z,24.21
2023-06-15T15:06:34.649Z,24.98
2023-06-15T15:09:36.103Z,24.93
2023-06-15T15:12:37.562Z,24.12
2023-06-15T15:15:39.056Z,25.45
2023-06-15T15:18:40.812Z,25.80
2023-06-15T15:21:42.364Z,26.54
2023-06-15T15:24:43.861Z,26.77
2023-06-15T15:27:46.144Z,26.89
2023-06-15T15:30:47.591Z,26.44
2023-06-15T15:33:49.216Z,27.01
2023-06-15T15:36:51.110Z,27.08
2023-06-15T15:39:52.542Z,26.92
2023-06-15T15:42:53.974Z,27.43
2023-06-15T15:45:55.501Z,28.11
2023-06-15T15:48:56.993Z,27.72
2023-06-15T15:51:58.512Z,27.74
2023-06-15T15:55:00.065Z,27.42
2023-06-15T15:58:01.830Z,27.73
2023-06-15T16:01:03.471Z,27.63
2023-06-15T16:04:05.021Z,27.25
2023-06-15T16:07:07.087Z,27.27
2023-06-15T16:10:09.761Z,26.73
2023-06-15T16:13:11.531Z,26.74
2023-06-15T16:16:28.128Z,26.36
2023-06-15T16:19:30.545Z,25.61
2023-06-15T16:22:33.279Z,25.94
2023-06-15T16:25:34.801Z,26.17
2023-06-15T16:28:36.326Z,26.31
2023-06-15T16:31:38.394Z,27.49
2023-06-15T16:34:39.922Z,27.65
2023-06-15T16:37:41.328Z,28.04
2023-06-15T16:40:47.999Z,28.73
2023-06-15T16:43:49.549Z,28.32
2023-06-15T16:46:50.997Z,28.20
2023-06-15T16:49:52.459Z,28.39
2023-06-15T16:52:53.964Z,28.51
2023-06-15T16:55:55.718Z,27.93
2023-06-15T16:58:57.251Z,27.86
2023-06-15T17:01:58.900Z,27.51
2023-06-15T17:05:03.547Z,28.19
2023-06-15T17:08:05.215Z,27.83
2023-06-15T17:11:06.667Z,27.71
2023-06-15T17:14:08.216Z,27.71
2023-06-15T17:17:10.248Z,28.03
2023-06-15T17:20:12.225Z,27.59
2023-06-15T17:23:13.678Z,27.98
2023-06-15T17:26:15.125Z,28.50
2023-06-15T17:29:16.647Z,28.39
2023-06-15T17:32:18.300Z,28.38
2023-06-15T17:35:19.772Z,28.48
2023-06-15T17:38:21.211Z,28.58
2023-06-15T17:41:22.890Z,28.84
2023-06-15T17:44:24.330Z,28.94
2023-06-15T17:47:25.950Z,28.55
2023-06-15T17:50:27.486Z,28.63
2023-06-15T17:53:30.576Z,28.60
2023-06-15T17:56:34.142Z,28.79
2023-06-15T17:59:35.586Z,28.23
2023-06-15T18:02:39.604Z,28.61
2023-06-15T18:05:41.510Z,28.81
2023-06-15T18:08:43.136Z,29.02
2023-06-15T18:11:44.618Z,29.02
2023-06-15T18:14:46.357Z,29.46
2023-06-15T18:17:47.870Z,29.41
2023-06-15T18:20:49.488Z,29.45
2023-06-15T18:23:50.995Z,29.34
2023-06-15T18:26:52.529Z,29.64
2023-06-15T18:29:54.015Z,29.63
2023-06-15T18:32:56.080Z,30.16
2023-06-15T18:35:57.595Z,29.65
2023-06-15T18:38:59.004Z,29.81
2023-06-15T18:42:03.516Z,29.67
2023-06-15T18:45:08.868Z,29.76
2023-06-15T18:48:10.924Z,30.23
2023-06-15T18:51:12.418Z,29.93
2023-06-15T18:54:13.845Z,29.88
2023-06-15T18:57:17.995Z,30.82
2023-06-15T19:00:19.507Z,31.74
2023-06-15T19:03:21.171Z,32.51
2023-06-15T19:06:22.638Z,33.05
2023-06-15T19:09:24.081Z,33.55
2023-06-15T19:12:25.590Z,33.73
2023-06-15T19:15:27.003Z,34.23
2023-06-15T19:18:28.549Z,34.15
2023-06-15T19:21:30.193Z,34.25
2023-06-15T19:24:32.382Z,34.94
2023-06-15T19:27:33.993Z,35.66
2023-06-15T19:30:35.607Z,35.37
2023-06-15T19:33:37.185Z,36.29
2023-06-15T19:36:38.666Z,35.67
2023-06-15T19:39:40.135Z,35.84
2023-06-15T19:42:42.558Z,35.74
2023-06-15T19:45:44.649Z,35.92
2023-06-15T19:48:46.289Z,36.03
2023-06-15T19:51:47.812Z,35.94
2023-06-15T19:54:49.352Z,36.67
2023-06-15T19:57:50.851Z,36.57
2023-06-15T20:00:52.345Z,36.77
2023-06-15T20:03:56.827Z,37.24
2023-06-15T20:06:59.401Z,38.31
2023-06-15T20:10:01.657Z,38.84
2023-06-15T20:13:03.891Z,39.31
2023-06-15T20:16:13.101Z,39.46
2023-06-15T20:19:16.520Z,39.89
2023-06-15T20:22:18.235Z,39.64
2023-06-15T20:25:19.714Z,39.68
2023-06-15T20:28:21.218Z,39.91
2023-06-15T20:31:23.043Z,40.50
2023-06-15T20:34:24.486Z,41.00
2023-06-15T20:37:28.684Z,41.34
2023-06-15T20:40:30.487Z,41.25
2023-06-15T20:43:32.433Z,41.85
2023-06-15T20:46:34.154Z,41.83
2023-06-15T20:49:35.853Z,42.01
2023-06-15T20:52:43.231Z,42.12
2023-06-15T20:55:44.742Z,42.06
2023-06-15T20:58:46.316Z,41.93
2023-06-15T21:01:47.791Z,42.40
2023-06-15T21:04:54.008Z,43.06
2023-06-15T21:07:58.740Z,43.28
2023-06-15T21:11:01.008Z,43.32
2023-06-15T21:14:02.670Z,43.54
2023-06-15T21:17:04.505Z,43.62
2023-06-15T21:20:07.227Z,43.67
2023-06-15T21:23:09.212Z,43.74
2023-06-15T21:26:10.839Z,44.15
2023-06-15T21:29:12.876Z,44.25
2023-06-15T21:32:14.481Z,44.39
2023-06-15T21:35:15.987Z,43.84
2023-06-15T21:38:18.515Z,43.83
2023-06-15T21:41:20.084Z,43.20
2023-06-15T21:44:21.570Z,44.45
2023-06-15T21:47:23.616Z,44.99
2023-06-15T21:50:27.003Z,44.96
2023-06-15T21:53:28.796Z,46.06
2023-06-15T21:56:30.355Z,46.11
2023-06-15T21:59:32.083Z,46.18
2023-06-15T22:02:33.568Z,46.75
2023-06-15T22:05:35.066Z,46.97
2023-06-15T22:08:36.547Z,46.17
2023-06-15T22:11:38.038Z,47.46
2023-06-15T22:14:39.531Z,47.59
2023-06-15T22:17:42.165Z,47.43
2023-06-15T22:20:50.141Z,47.21
2023-06-15T22:23:51.613Z,48.05
2023-06-15T22:26:53.047Z,47.99
2023-06-15T22:29:54.490Z,48.65
2023-06-15T22:32:56.545Z,48.39
2023-06-15T22:35:58.021Z,47.90
2023-06-15T22:38:59.676Z,49.01
2023-06-15T22:42:01.188Z,49.26
2023-06-15T22:45:02.713Z,49.12
2023-06-15T22:48:05.375Z,50.04
2023-06-15T22:51:06.905Z,49.86
2023-06-15T22:54:08.330Z,49.11
2023-06-15T22:57:11.666Z,50.27
2023-06-15T23:00:14.309Z,50.91
2023-06-15T23:03:16.701Z,51.16
2023-06-15T23:06:20.082Z,51.13
2023-06-15T23:09:21.949Z,51.52
2023-06-15T23:12:25.896Z,51.59
2023-06-15T23:15:33.224Z,51.60
2023-06-15T23:18:36.785Z,50.72
2023-06-15T23:21:40.495Z,51.34
2023-06-15T23:24:41.982Z,52.67
2023-06-15T23:27:43.413Z,54.03
2023-06-15T23:30:44.876Z,53.88
2023-06-15T23:33:46.439Z,54.29
2023-06-15T23:36:47.919Z,53.74
2023-06-15T23:39:49.487Z,54.54
2023-06-15T23:42:50.983Z,54.26
2023-06-15T23:45:52.496Z,54.68
2023-06-15T23:48:54.343Z,54.85
2023-06-15T23:51:55.846Z,54.68
2023-06-15T23:54:57.377Z,54.61
2023-06-15T23:57:58.806Z,55.42
